createdAt,value
2019-05-14T00:00:13.000Z,28
2019-05-14T00:01:13.000Z,28
2019-05-14T00:02:13.000Z,28
2019-05-14T00:04:13.000Z,28
2019-05-14T00:05:13.000Z,28
2019-05-14T00:06:13.000Z,28
2019-05-14T00:07:13.000Z,28
2019-05-14T00:08:13.000Z,28
2019-05-14T00:09:13.000Z,28
2019-05-14T00:11:13.000Z,28
2019-05-14T00:12:13.000Z,28
2019-05-14T00:13:13.000Z,28
2019-05-14T00:14:13.000Z,28
2019-05-14T00:15:13.000Z,28
2019-05-14T00:16:13.000Z,28
2019-05-14T00:17:13.000Z,28
2019-05-14T00:18:13.000Z,28
2019-05-14T00:19:13.000Z,28
2019-05-14T00:20:13.000Z,28
2019-05-14T00:21:13.000Z,28
2019-05-14T00:22:13.000Z,28
2019-05-14T00:23:13.000Z,28
2019-05-14T00:24:13.000Z,28
2019-05-14T00:25:13.000Z,28
2019-05-14T00:26:13.000Z,28
2019-05-14T00:27:13.000Z,27
2019-05-14T00:28:13.000Z,27
2019-05-14T00:29:13.000Z,27
2019-05-14T00:30:13.000Z,28
2019-05-14T00:31:13.000Z,27
2019-05-14T00:33:13.000Z,27
2019-05-14T00:35:13.000Z,27
2019-05-14T00:36:13.000Z,28
2019-05-14T00:37:13.000Z,28
2019-05-14T00:39:13.000Z,28
2019-05-14T00:40:13.000Z,27
2019-05-14T00:41:13.000Z,27
2019-05-14T00:43:13.000Z,27
2019-05-14T00:45:13.000Z,28
2019-05-14T00:46:13.000Z,28
2019-05-14T00:47:13.000Z,28
2019-05-14T00:48:13.000Z,28
2019-05-14T00:50:13.000Z,28
2019-05-14T00:51:13.000Z,28
2019-05-14T00:52:13.000Z,28
2019-05-14T00:53:13.000Z,28
2019-05-14T00:54:13.000Z,28
2019-05-14T00:55:13.000Z,28
2019-05-14T00:56:13.000Z,28
2019-05-14T00:57:13.000Z,28
2019-05-14T00:58:13.000Z,28
2019-05-14T00:59:13.000Z,28
2019-05-14T01:01:13.000Z,28
2019-05-14T01:02:13.000Z,28
2019-05-14T01:03:13.000Z,28
2019-05-14T01:04:13.000Z,28
2019-05-14T01:06:13.000Z,28
2019-05-14T01:07:13.000Z,28
2019-05-14T01:08:13.000Z,28
2019-05-14T01:09:13.000Z,28
2019-05-14T01:10:13.000Z,28
2019-05-14T01:11:13.000Z,28
2019-05-14T01:12:13.000Z,28
2019-05-14T01:13:13.000Z,28
2019-05-14T01:14:13.000Z,28
2019-05-14T01:15:13.000Z,28
2019-05-14T01:16:13.000Z,28
2019-05-14T01:17:13.000Z,28
2019-05-14T01:18:13.000Z,28
2019-05-14T01:19:13.000Z,28
2019-05-14T01:21:13.000Z,28
2019-05-14T01:22:13.000Z,28
2019-05-14T01:23:13.000Z,28
2019-05-14T01:24:13.000Z,28
2019-05-14T01:25:13.000Z,28
2019-05-14T01:26:13.000Z,28
2019-05-14T01:27:13.000Z,28
2019-05-14T01:28:13.000Z,28
2019-05-14T01:29:13.000Z,28
2019-05-14T01:30:13.000Z,28
2019-05-14T01:31:13.000Z,28
2019-05-14T01:32:13.000Z,27
2019-05-14T01:33:13.000Z,28
2019-05-14T01:34:13.000Z,28
2019-05-14T01:36:13.000Z,28
2019-05-14T01:37:13.000Z,28
2019-05-14T01:38:13.000Z,28
2019-05-14T01:39:13.000Z,28
2019-05-14T01:40:13.000Z,28
2019-05-14T01:42:13.000Z,28
2019-05-14T01:43:13.000Z,28
2019-05-14T01:44:13.000Z,28
2019-05-14T01:45:13.000Z,28
2019-05-14T01:46:13.000Z,28
2019-05-14T01:47:13.000Z,28
2019-05-14T01:48:13.000Z,28
2019-05-14T01:49:13.000Z,28
2019-05-14T01:50:13.000Z,28
2019-05-14T01:51:13.000Z,28
2019-05-14T01:52:13.000Z,28
2019-05-14T01:53:13.000Z,28
2019-05-14T01:54:13.000Z,28
2019-05-14T01:55:13.000Z,28
2019-05-14T01:56:13.000Z,28
2019-05-14T01:57:13.000Z,28
2019-05-14T01:59:13.000Z,28
2019-05-14T02:00:13.000Z,28
2019-05-14T02:02:13.000Z,28
2019-05-14T02:03:13.000Z,28
2019-05-14T02:04:13.000Z,28
2019-05-14T02:05:13.000Z,28
2019-05-14T02:06:13.000Z,28
2019-05-14T02:07:13.000Z,28
2019-05-14T02:08:13.000Z,28
2019-05-14T02:09:13.000Z,28
2019-05-14T02:10:13.000Z,28
2019-05-14T02:12:13.000Z,28
2019-05-14T02:14:13.000Z,28
2019-05-14T02:15:13.000Z,28
2019-05-14T02:16:13.000Z,28
2019-05-14T02:17:13.000Z,28
2019-05-14T02:18:13.000Z,28
2019-05-14T02:19:13.000Z,28
2019-05-14T02:20:13.000Z,28
2019-05-14T02:21:13.000Z,28
2019-05-14T02:22:13.000Z,28
2019-05-14T02:23:13.000Z,28
2019-05-14T02:24:13.000Z,28
2019-05-14T02:25:13.000Z,28
2019-05-14T02:26:13.000Z,28
2019-05-14T02:27:13.000Z,28
2019-05-14T02:28:13.000Z,28
2019-05-14T02:29:13.000Z,28
2019-05-14T02:30:13.000Z,28
2019-05-14T02:32:13.000Z,28
2019-05-14T02:33:13.000Z,28
2019-05-14T02:34:13.000Z,28
2019-05-14T02:35:13.000Z,28
2019-05-14T02:36:13.000Z,28
2019-05-14T02:37:13.000Z,28
2019-05-14T02:38:13.000Z,28
2019-05-14T02:39:13.000Z,28
2019-05-14T02:40:13.000Z,28
2019-05-14T02:41:13.000Z,28
2019-05-14T02:42:13.000Z,28
2019-05-14T02:43:13.000Z,28
2019-05-14T02:44:13.000Z,28
2019-05-14T02:45:13.000Z,28
2019-05-14T02:47:13.000Z,28
2019-05-14T02:48:13.000Z,28
2019-05-14T02:49:13.000Z,28
2019-05-14T02:50:13.000Z,28
2019-05-14T02:51:13.000Z,28
2019-05-14T02:52:13.000Z,28
2019-05-14T02:54:13.000Z,28
2019-05-14T02:56:13.000Z,28
2019-05-14T02:57:13.000Z,28
2019-05-14T02:58:13.000Z,28
2019-05-14T03:00:13.000Z,28
2019-05-14T03:01:13.000Z,28
2019-05-14T03:02:13.000Z,28
2019-05-14T03:03:13.000Z,28
2019-05-14T03:05:13.000Z,28
2019-05-14T03:06:13.000Z,28
2019-05-14T03:07:13.000Z,28
2019-05-14T03:08:13.000Z,28
2019-05-14T03:09:13.000Z,28
2019-05-14T03:10:13.000Z,28
2019-05-14T03:11:13.000Z,28
2019-05-14T03:13:13.000Z,28
2019-05-14T03:14:13.000Z,28
2019-05-14T03:15:13.000Z,28
2019-05-14T03:16:13.000Z,28
2019-05-14T03:17:13.000Z,28
2019-05-14T03:18:13.000Z,28
2019-05-14T03:19:13.000Z,28
2019-05-14T03:20:13.000Z,28
2019-05-14T03:21:13.000Z,28
2019-05-14T03:22:13.000Z,28
2019-05-14T03:23:13.000Z,28
2019-05-14T03:24:13.000Z,28
2019-05-14T03:25:13.000Z,28
2019-05-14T03:26:13.000Z,28
2019-05-14T03:27:13.000Z,28
2019-05-14T03:29:13.000Z,28
2019-05-14T03:30:13.000Z,28
2019-05-14T03:32:13.000Z,28
2019-05-14T03:33:13.000Z,28
2019-05-14T03:34:13.000Z,28
2019-05-14T03:35:13.000Z,28
2019-05-14T03:36:13.000Z,28
2019-05-14T03:37:13.000Z,28
2019-05-14T03:38:13.000Z,28
2019-05-14T03:39:13.000Z,28
2019-05-14T03:40:13.000Z,28
2019-05-14T03:41:13.000Z,28
2019-05-14T03:42:13.000Z,28
2019-05-14T03:43:13.000Z,28
2019-05-14T03:44:14.000Z,28
2019-05-14T03:45:14.000Z,28
2019-05-14T03:46:14.000Z,28
2019-05-14T03:47:14.000Z,28
2019-05-14T03:48:14.000Z,28
2019-05-14T03:49:14.000Z,28
2019-05-14T03:50:14.000Z,28
2019-05-14T03:51:14.000Z,28
2019-05-14T03:52:14.000Z,28
2019-05-14T03:53:14.000Z,28
2019-05-14T03:54:14.000Z,28
2019-05-14T03:55:14.000Z,28
2019-05-14T03:56:14.000Z,28
2019-05-14T03:57:14.000Z,28
2019-05-14T03:58:14.000Z,28
2019-05-14T03:59:14.000Z,28
2019-05-14T04:00:14.000Z,28
2019-05-14T04:01:14.000Z,28
2019-05-14T04:02:14.000Z,28
2019-05-14T04:03:14.000Z,28
2019-05-14T04:04:14.000Z,28
2019-05-14T04:05:14.000Z,28
2019-05-14T04:06:14.000Z,28
2019-05-14T04:07:14.000Z,28
2019-05-14T04:08:14.000Z,28
2019-05-14T04:09:14.000Z,28
2019-05-14T04:10:14.000Z,28
2019-05-14T04:11:14.000Z,28
2019-05-14T04:12:14.000Z,28
2019-05-14T04:13:14.000Z,28
2019-05-14T04:14:14.000Z,28
2019-05-14T04:16:14.000Z,28
2019-05-14T04:17:14.000Z,28
2019-05-14T04:18:14.000Z,28
2019-05-14T04:19:14.000Z,28
2019-05-14T04:20:14.000Z,28
2019-05-14T04:21:14.000Z,28
2019-05-14T04:23:14.000Z,28
2019-05-14T04:24:14.000Z,29
2019-05-14T04:25:14.000Z,29
2019-05-14T04:26:14.000Z,29
2019-05-14T04:27:14.000Z,29
2019-05-14T04:28:14.000Z,29
2019-05-14T04:29:14.000Z,29
2019-05-14T04:30:14.000Z,30
2019-05-14T04:31:14.000Z,30
2019-05-14T04:32:14.000Z,30
2019-05-14T04:33:14.000Z,30
2019-05-14T04:34:14.000Z,30
2019-05-14T04:35:14.000Z,30
2019-05-14T04:36:14.000Z,30
2019-05-14T04:37:14.000Z,30
2019-05-14T04:38:14.000Z,30
2019-05-14T04:39:14.000Z,30
2019-05-14T04:40:14.000Z,30
2019-05-14T04:41:14.000Z,30
2019-05-14T04:42:14.000Z,30
2019-05-14T04:43:14.000Z,30
2019-05-14T04:44:14.000Z,30
2019-05-14T04:45:14.000Z,30
2019-05-14T04:46:14.000Z,30
2019-05-14T04:47:13.000Z,30
2019-05-14T04:48:13.000Z,30
2019-05-14T04:50:13.000Z,30
2019-05-14T04:51:13.000Z,30
2019-05-14T04:52:13.000Z,30
2019-05-14T04:54:13.000Z,30
2019-05-14T04:55:13.000Z,30
2019-05-14T04:56:13.000Z,30
2019-05-14T04:57:13.000Z,30
2019-05-14T04:58:13.000Z,30
2019-05-14T04:59:13.000Z,30
2019-05-14T05:00:13.000Z,30
2019-05-14T05:01:13.000Z,30
2019-05-14T05:02:13.000Z,30
2019-05-14T05:03:13.000Z,30
2019-05-14T05:04:13.000Z,30
2019-05-14T05:05:13.000Z,30
2019-05-14T05:06:13.000Z,30
2019-05-14T05:07:13.000Z,30
2019-05-14T05:08:13.000Z,30
2019-05-14T05:09:13.000Z,30
2019-05-14T05:10:13.000Z,30
2019-05-14T05:11:13.000Z,30
2019-05-14T05:12:13.000Z,30
2019-05-14T05:13:13.000Z,30
2019-05-14T05:14:13.000Z,30
2019-05-14T05:15:13.000Z,30
2019-05-14T05:16:13.000Z,30
2019-05-14T05:17:13.000Z,30
2019-05-14T05:18:13.000Z,29
2019-05-14T05:19:13.000Z,29
2019-05-14T05:20:13.000Z,29
2019-05-14T05:21:13.000Z,30
2019-05-14T05:22:13.000Z,30
2019-05-14T05:23:13.000Z,30
2019-05-14T05:24:13.000Z,29
2019-05-14T05:25:13.000Z,29
2019-05-14T05:26:13.000Z,29
2019-05-14T05:27:13.000Z,29
2019-05-14T05:28:13.000Z,29
2019-05-14T05:29:13.000Z,29
2019-05-14T05:30:13.000Z,29
2019-05-14T05:31:13.000Z,29
2019-05-14T05:32:13.000Z,29
2019-05-14T05:33:13.000Z,29
2019-05-14T05:34:13.000Z,29
2019-05-14T05:36:13.000Z,29
2019-05-14T05:38:13.000Z,29
2019-05-14T05:39:13.000Z,29
2019-05-14T05:40:13.000Z,29
2019-05-14T05:41:13.000Z,29
2019-05-14T05:42:13.000Z,29
2019-05-14T05:43:13.000Z,28
2019-05-14T05:44:13.000Z,29
2019-05-14T05:45:13.000Z,28
2019-05-14T05:46:13.000Z,28
2019-05-14T05:48:13.000Z,28
2019-05-14T05:49:13.000Z,28
2019-05-14T05:50:13.000Z,28
2019-05-14T05:51:13.000Z,28
2019-05-14T05:52:13.000Z,28
2019-05-14T05:53:13.000Z,28
2019-05-14T05:54:13.000Z,28
2019-05-14T05:55:13.000Z,28
2019-05-14T05:57:13.000Z,29
2019-05-14T05:58:13.000Z,29
2019-05-14T05:59:13.000Z,29
2019-05-14T06:00:13.000Z,29
2019-05-14T06:01:13.000Z,28
2019-05-14T06:02:13.000Z,28
2019-05-14T06:03:13.000Z,28
2019-05-14T06:04:13.000Z,28
2019-05-14T06:06:13.000Z,29
2019-05-14T06:07:13.000Z,29
2019-05-14T06:08:13.000Z,29
2019-05-14T06:09:13.000Z,29
2019-05-14T06:10:13.000Z,29
2019-05-14T06:11:13.000Z,30
2019-05-14T06:13:13.000Z,30
2019-05-14T06:14:13.000Z,30
2019-05-14T06:15:13.000Z,30
2019-05-14T06:16:13.000Z,30
2019-05-14T06:17:13.000Z,30
2019-05-14T06:18:13.000Z,30
2019-05-14T06:19:13.000Z,30
2019-05-14T06:20:13.000Z,30
2019-05-14T06:21:13.000Z,30
2019-05-14T06:22:13.000Z,30
2019-05-14T06:23:13.000Z,30
2019-05-14T06:24:13.000Z,30
2019-05-14T06:25:13.000Z,30
2019-05-14T06:26:13.000Z,30
2019-05-14T06:28:13.000Z,30
2019-05-14T06:30:13.000Z,30
2019-05-14T06:31:13.000Z,30
2019-05-14T06:32:13.000Z,30
2019-05-14T06:33:13.000Z,30
2019-05-14T06:34:13.000Z,30
2019-05-14T06:35:13.000Z,30
2019-05-14T06:36:13.000Z,30
2019-05-14T06:37:13.000Z,30
2019-05-14T06:38:13.000Z,30
2019-05-14T06:39:13.000Z,30
2019-05-14T06:40:13.000Z,31
2019-05-14T06:41:13.000Z,31
2019-05-14T06:42:13.000Z,31
2019-05-14T06:43:13.000Z,31
2019-05-14T06:44:13.000Z,31
2019-05-14T06:45:13.000Z,30
2019-05-14T06:46:13.000Z,30
2019-05-14T06:47:13.000Z,30
2019-05-14T06:48:13.000Z,30
2019-05-14T06:49:13.000Z,30
2019-05-14T06:50:13.000Z,30
2019-05-14T06:52:13.000Z,30
2019-05-14T06:53:13.000Z,30
2019-05-14T06:54:13.000Z,30
2019-05-14T06:55:13.000Z,30
2019-05-14T06:56:13.000Z,30
2019-05-14T06:57:13.000Z,29
2019-05-14T06:58:13.000Z,30
2019-05-14T06:59:13.000Z,30
2019-05-14T07:00:13.000Z,30
2019-05-14T07:01:13.000Z,30
2019-05-14T07:02:13.000Z,30
2019-05-14T07:03:13.000Z,30
2019-05-14T07:04:13.000Z,30
2019-05-14T07:05:13.000Z,30
2019-05-14T07:06:13.000Z,30
2019-05-14T07:07:13.000Z,30
2019-05-14T07:08:13.000Z,30
2019-05-14T07:10:13.000Z,30
2019-05-14T07:11:13.000Z,30
2019-05-14T07:12:13.000Z,30
2019-05-14T07:14:13.000Z,30
2019-05-14T07:15:13.000Z,30
2019-05-14T07:16:13.000Z,30
2019-05-14T07:18:13.000Z,30
2019-05-14T07:19:13.000Z,30
2019-05-14T07:20:13.000Z,29
2019-05-14T07:21:13.000Z,30
2019-05-14T07:22:13.000Z,30
2019-05-14T07:23:13.000Z,30
2019-05-14T07:24:13.000Z,30
2019-05-14T07:25:13.000Z,30
2019-05-14T07:26:13.000Z,30
2019-05-14T07:27:13.000Z,29
2019-05-14T07:28:13.000Z,30
2019-05-14T07:29:13.000Z,30
2019-05-14T07:30:13.000Z,29
2019-05-14T07:31:13.000Z,29
2019-05-14T07:32:13.000Z,29
2019-05-14T07:33:13.000Z,29
2019-05-14T07:34:13.000Z,29
2019-05-14T07:35:13.000Z,29
2019-05-14T07:36:13.000Z,29
2019-05-14T07:37:13.000Z,29
2019-05-14T07:38:13.000Z,29
2019-05-14T07:39:13.000Z,29
2019-05-14T07:40:13.000Z,29
2019-05-14T07:41:13.000Z,29
2019-05-14T07:43:13.000Z,29
2019-05-14T07:44:13.000Z,29
2019-05-14T07:45:13.000Z,29
2019-05-14T07:47:13.000Z,29
2019-05-14T07:49:13.000Z,29
2019-05-14T07:50:13.000Z,29
2019-05-14T07:51:13.000Z,29
2019-05-14T07:53:13.000Z,29
2019-05-14T07:55:13.000Z,29
2019-05-14T07:56:13.000Z,29
2019-05-14T07:57:13.000Z,29
2019-05-14T07:58:13.000Z,29
2019-05-14T08:00:13.000Z,29
2019-05-14T08:01:13.000Z,29
2019-05-14T08:02:13.000Z,29
2019-05-14T08:03:13.000Z,29
2019-05-14T08:04:13.000Z,29
2019-05-14T08:05:13.000Z,29
2019-05-14T08:06:13.000Z,29
2019-05-14T08:07:13.000Z,29
2019-05-14T08:09:13.000Z,29
2019-05-14T08:11:13.000Z,29
2019-05-14T08:12:13.000Z,29
2019-05-14T08:13:13.000Z,29
2019-05-14T08:14:13.000Z,29
2019-05-14T08:15:13.000Z,29
2019-05-14T08:16:13.000Z,29
2019-05-14T08:18:13.000Z,29
2019-05-14T08:19:13.000Z,29
2019-05-14T08:20:13.000Z,29
2019-05-14T08:21:13.000Z,29
2019-05-14T08:22:13.000Z,29
2019-05-14T08:23:13.000Z,29
2019-05-14T08:24:13.000Z,29
2019-05-14T08:25:13.000Z,29
2019-05-14T08:26:13.000Z,29
2019-05-14T08:27:13.000Z,29
2019-05-14T08:28:13.000Z,29
2019-05-14T08:29:13.000Z,29
2019-05-14T08:30:13.000Z,29
2019-05-14T08:31:13.000Z,29
2019-05-14T08:32:13.000Z,29
2019-05-14T08:33:13.000Z,29
2019-05-14T08:34:13.000Z,29
2019-05-14T08:35:13.000Z,29
2019-05-14T08:36:13.000Z,29
2019-05-14T08:37:13.000Z,29
2019-05-14T08:38:13.000Z,29
2019-05-14T08:39:13.000Z,29
2019-05-14T08:41:13.000Z,29
2019-05-14T08:42:13.000Z,29
2019-05-14T08:43:13.000Z,29
2019-05-14T08:44:13.000Z,29
2019-05-14T08:45:13.000Z,29
2019-05-14T08:46:13.000Z,29
2019-05-14T08:47:13.000Z,29
2019-05-14T08:48:13.000Z,29
2019-05-14T08:49:13.000Z,29
2019-05-14T08:50:13.000Z,29
2019-05-14T08:51:13.000Z,29
2019-05-14T08:53:13.000Z,28
2019-05-14T08:54:13.000Z,29
2019-05-14T08:55:13.000Z,29
2019-05-14T08:56:13.000Z,29
2019-05-14T08:57:13.000Z,29
2019-05-14T08:59:13.000Z,28
2019-05-14T09:00:13.000Z,29
2019-05-14T09:01:13.000Z,29
2019-05-14T09:03:13.000Z,29
2019-05-14T09:05:13.000Z,28
2019-05-14T09:07:13.000Z,28
2019-05-14T09:08:13.000Z,28
2019-05-14T09:09:13.000Z,28
2019-05-14T09:10:13.000Z,28
2019-05-14T09:11:13.000Z,28
2019-05-14T09:12:13.000Z,28
2019-05-14T09:13:13.000Z,28
2019-05-14T09:14:13.000Z,28
2019-05-14T09:15:13.000Z,28
2019-05-14T09:16:13.000Z,28
2019-05-14T09:17:13.000Z,28
2019-05-14T09:18:13.000Z,28
2019-05-14T09:19:13.000Z,28
2019-05-14T09:21:13.000Z,28
2019-05-14T09:22:13.000Z,28
2019-05-14T09:23:13.000Z,28
2019-05-14T09:24:13.000Z,28
2019-05-14T09:25:13.000Z,28
2019-05-14T09:26:13.000Z,28
2019-05-14T09:28:13.000Z,28
2019-05-14T09:29:13.000Z,28
2019-05-14T09:30:13.000Z,28
2019-05-14T09:31:13.000Z,28
2019-05-14T09:32:13.000Z,28
2019-05-14T09:33:13.000Z,28
2019-05-14T09:34:13.000Z,28
2019-05-14T09:35:13.000Z,28
2019-05-14T09:36:13.000Z,28
2019-05-14T09:37:13.000Z,28
2019-05-14T09:38:13.000Z,28
2019-05-14T09:39:13.000Z,28
2019-05-14T09:40:13.000Z,28
2019-05-14T09:41:13.000Z,28
2019-05-14T09:42:13.000Z,27
2019-05-14T09:44:13.000Z,27
2019-05-14T09:45:13.000Z,28
2019-05-14T09:46:13.000Z,28
2019-05-14T09:47:13.000Z,27
2019-05-14T09:48:13.000Z,27
2019-05-14T09:49:13.000Z,27
2019-05-14T09:50:13.000Z,27
2019-05-14T09:52:13.000Z,27
2019-05-14T09:53:13.000Z,27
2019-05-14T09:55:13.000Z,27
2019-05-14T09:56:13.000Z,27
2019-05-14T09:58:13.000Z,27
2019-05-14T09:59:13.000Z,27
2019-05-14T10:00:13.000Z,27
2019-05-14T10:01:13.000Z,27
2019-05-14T10:02:13.000Z,27
2019-05-14T10:03:13.000Z,27
2019-05-14T10:04:13.000Z,27
2019-05-14T10:05:13.000Z,27
2019-05-14T10:06:13.000Z,27
2019-05-14T10:07:13.000Z,27
2019-05-14T10:08:13.000Z,27
2019-05-14T10:10:13.000Z,27
2019-05-14T10:11:13.000Z,27
2019-05-14T10:12:13.000Z,27
2019-05-14T10:13:13.000Z,27
2019-05-14T10:14:13.000Z,27
2019-05-14T10:15:13.000Z,26
2019-05-14T10:16:13.000Z,26
2019-05-14T10:17:13.000Z,26
2019-05-14T10:18:13.000Z,26
2019-05-14T10:19:13.000Z,26
2019-05-14T10:20:13.000Z,26
2019-05-14T10:21:13.000Z,26
2019-05-14T10:22:13.000Z,26
2019-05-14T10:23:13.000Z,26
2019-05-14T10:24:13.000Z,26
2019-05-14T10:25:13.000Z,26
2019-05-14T10:26:13.000Z,26
2019-05-14T10:27:13.000Z,26
2019-05-14T10:28:13.000Z,26
2019-05-14T10:29:13.000Z,26
2019-05-14T10:30:13.000Z,26
2019-05-14T10:31:13.000Z,26
2019-05-14T10:33:13.000Z,26
2019-05-14T10:34:13.000Z,26
2019-05-14T10:36:13.000Z,26
2019-05-14T10:37:13.000Z,26
2019-05-14T10:38:13.000Z,26
2019-05-14T10:39:13.000Z,26
2019-05-14T10:40:13.000Z,26
2019-05-14T10:41:13.000Z,26
2019-05-14T10:42:13.000Z,27
2019-05-14T10:43:13.000Z,27
2019-05-14T10:44:13.000Z,27
2019-05-14T10:45:13.000Z,26
2019-05-14T10:46:13.000Z,27
2019-05-14T10:47:13.000Z,27
2019-05-14T10:48:13.000Z,26
2019-05-14T10:49:13.000Z,26
2019-05-14T10:50:13.000Z,26
2019-05-14T10:51:13.000Z,26
2019-05-14T10:52:13.000Z,26
2019-05-14T10:53:13.000Z,27
2019-05-14T10:54:13.000Z,26
2019-05-14T10:56:13.000Z,26
2019-05-14T10:57:13.000Z,26
2019-05-14T10:58:13.000Z,27
2019-05-14T10:59:13.000Z,27
2019-05-14T11:00:13.000Z,27
2019-05-14T11:01:13.000Z,27
2019-05-14T11:02:13.000Z,27
2019-05-14T11:03:13.000Z,27
2019-05-14T11:04:13.000Z,27
2019-05-14T11:05:13.000Z,27
2019-05-14T11:06:13.000Z,27
2019-05-14T11:07:13.000Z,27
2019-05-14T11:09:13.000Z,26
2019-05-14T11:10:13.000Z,27
2019-05-14T11:11:13.000Z,26
2019-05-14T11:12:13.000Z,26
2019-05-14T11:13:13.000Z,26
2019-05-14T11:14:13.000Z,26
2019-05-14T11:15:13.000Z,26
2019-05-14T11:16:13.000Z,26
2019-05-14T11:17:13.000Z,27
2019-05-14T11:19:13.000Z,27
2019-05-14T11:20:13.000Z,27
2019-05-14T11:21:13.000Z,27
2019-05-14T11:22:13.000Z,26
2019-05-14T11:23:13.000Z,26
2019-05-14T11:24:13.000Z,26
2019-05-14T11:25:13.000Z,26
2019-05-14T11:27:13.000Z,26
2019-05-14T11:28:13.000Z,26
2019-05-14T11:29:13.000Z,26
2019-05-14T11:30:13.000Z,26
2019-05-14T11:31:13.000Z,26
2019-05-14T11:33:13.000Z,26
2019-05-14T11:34:13.000Z,26
2019-05-14T11:35:13.000Z,26
2019-05-14T11:36:13.000Z,26
2019-05-14T11:37:13.000Z,26
2019-05-14T11:39:13.000Z,26
2019-05-14T11:40:13.000Z,26
2019-05-14T11:41:13.000Z,26
2019-05-14T11:42:13.000Z,26
2019-05-14T11:43:13.000Z,26
2019-05-14T11:44:13.000Z,26
2019-05-14T11:45:13.000Z,26
2019-05-14T11:46:13.000Z,26
2019-05-14T11:47:13.000Z,26
2019-05-14T11:48:13.000Z,26
2019-05-14T11:49:13.000Z,26
2019-05-14T11:50:13.000Z,26
2019-05-14T11:51:13.000Z,26
2019-05-14T11:52:13.000Z,26
2019-05-14T11:53:13.000Z,26
2019-05-14T11:54:13.000Z,26
2019-05-14T11:55:13.000Z,26
2019-05-14T11:56:13.000Z,26
2019-05-14T11:57:13.000Z,25
2019-05-14T11:58:13.000Z,25
2019-05-14T11:59:13.000Z,25
2019-05-14T12:00:13.000Z,25
2019-05-14T12:01:13.000Z,25
2019-05-14T12:02:13.000Z,25
2019-05-14T12:03:13.000Z,25
2019-05-14T12:04:13.000Z,26
2019-05-14T12:05:13.000Z,25
2019-05-14T12:06:13.000Z,25
2019-05-14T12:07:13.000Z,25
2019-05-14T12:08:13.000Z,25
2019-05-14T12:09:13.000Z,25
2019-05-14T12:10:13.000Z,25
2019-05-14T12:12:13.000Z,25
2019-05-14T12:13:13.000Z,25
2019-05-14T12:14:13.000Z,25
2019-05-14T12:15:13.000Z,25
2019-05-14T12:16:13.000Z,25
2019-05-14T12:17:13.000Z,25
2019-05-14T12:18:13.000Z,25
2019-05-14T12:19:13.000Z,25
2019-05-14T12:20:13.000Z,25
2019-05-14T12:21:13.000Z,25
2019-05-14T12:23:13.000Z,25
2019-05-14T12:24:13.000Z,25
2019-05-14T12:25:13.000Z,25
2019-05-14T12:26:13.000Z,25
2019-05-14T12:27:13.000Z,25
2019-05-14T12:28:13.000Z,25
2019-05-14T12:29:13.000Z,25
2019-05-14T12:30:13.000Z,25
2019-05-14T12:31:13.000Z,25
2019-05-14T12:32:13.000Z,25
2019-05-14T12:33:13.000Z,25
2019-05-14T12:34:13.000Z,25
2019-05-14T12:35:13.000Z,25
2019-05-14T12:36:13.000Z,25
2019-05-14T12:38:13.000Z,25
2019-05-14T12:39:13.000Z,25
2019-05-14T12:40:13.000Z,25
2019-05-14T12:41:13.000Z,25
2019-05-14T12:42:13.000Z,25
2019-05-14T12:43:13.000Z,25
2019-05-14T12:44:13.000Z,25
2019-05-14T12:45:13.000Z,25
2019-05-14T12:46:13.000Z,25
2019-05-14T12:47:13.000Z,25
2019-05-14T12:48:13.000Z,25
2019-05-14T12:49:13.000Z,25
2019-05-14T12:50:13.000Z,25
2019-05-14T12:51:13.000Z,25
2019-05-14T12:53:13.000Z,25
2019-05-14T12:54:13.000Z,25
2019-05-14T12:55:13.000Z,25
2019-05-14T12:56:13.000Z,25
2019-05-14T12:57:13.000Z,25
2019-05-14T12:59:13.000Z,25
2019-05-14T13:00:13.000Z,25
2019-05-14T13:01:13.000Z,25
2019-05-14T13:02:13.000Z,25
2019-05-14T13:03:13.000Z,24
2019-05-14T13:04:13.000Z,24
2019-05-14T13:05:13.000Z,24
2019-05-14T13:06:13.000Z,24
2019-05-14T13:07:13.000Z,24
2019-05-14T13:08:13.000Z,24
2019-05-14T13:09:13.000Z,24
2019-05-14T13:10:13.000Z,24
2019-05-14T13:11:13.000Z,24
2019-05-14T13:12:13.000Z,24
2019-05-14T13:14:13.000Z,24
2019-05-14T13:15:13.000Z,24
2019-05-14T13:16:13.000Z,24
2019-05-14T13:18:13.000Z,24
2019-05-14T13:19:13.000Z,24
2019-05-14T13:20:13.000Z,24
2019-05-14T13:21:13.000Z,24
2019-05-14T13:23:13.000Z,23
2019-05-14T13:24:13.000Z,24
2019-05-14T13:25:13.000Z,24
2019-05-14T13:26:13.000Z,24
2019-05-14T13:27:13.000Z,24
2019-05-14T13:28:13.000Z,24
2019-05-14T13:29:13.000Z,24
2019-05-14T13:30:13.000Z,24
2019-05-14T13:31:13.000Z,24
2019-05-14T13:32:13.000Z,24
2019-05-14T13:33:13.000Z,24
2019-05-14T13:34:13.000Z,24
2019-05-14T13:35:13.000Z,24
2019-05-14T13:36:13.000Z,24
2019-05-14T13:38:13.000Z,24
2019-05-14T13:39:13.000Z,24
2019-05-14T13:40:13.000Z,24
2019-05-14T13:41:13.000Z,24
2019-05-14T13:43:13.000Z,24
2019-05-14T13:44:13.000Z,23
2019-05-14T13:45:13.000Z,23
2019-05-14T13:46:13.000Z,23
2019-05-14T13:47:13.000Z,23
2019-05-14T13:48:13.000Z,24
2019-05-14T13:49:13.000Z,23
2019-05-14T13:50:13.000Z,23
2019-05-14T13:51:13.000Z,23
2019-05-14T13:52:13.000Z,23
2019-05-14T13:53:13.000Z,23
2019-05-14T13:54:13.000Z,23
2019-05-14T13:55:13.000Z,23
2019-05-14T13:56:13.000Z,23
2019-05-14T13:57:13.000Z,24
2019-05-14T13:58:13.000Z,24
2019-05-14T13:59:13.000Z,24
2019-05-14T14:00:14.000Z,24
2019-05-14T14:01:14.000Z,23
2019-05-14T14:03:14.000Z,23
2019-05-14T14:04:14.000Z,23
2019-05-14T14:06:14.000Z,24
2019-05-14T14:07:14.000Z,24
2019-05-14T14:08:14.000Z,24
2019-05-14T14:10:14.000Z,23
2019-05-14T14:12:14.000Z,23
2019-05-14T14:13:14.000Z,23
2019-05-14T14:14:14.000Z,24
2019-05-14T14:15:14.000Z,24
2019-05-14T14:16:14.000Z,24
2019-05-14T14:17:14.000Z,24
2019-05-14T14:18:14.000Z,24
2019-05-14T14:19:14.000Z,24
2019-05-14T14:20:14.000Z,24
2019-05-14T14:21:14.000Z,24
2019-05-14T14:22:14.000Z,24
2019-05-14T14:23:14.000Z,24
2019-05-14T14:24:14.000Z,24
2019-05-14T14:25:13.000Z,24
2019-05-14T14:26:13.000Z,24
2019-05-14T14:27:13.000Z,24
2019-05-14T14:29:13.000Z,24
2019-05-14T14:30:13.000Z,24
2019-05-14T14:31:13.000Z,24
2019-05-14T14:32:13.000Z,24
2019-05-14T14:33:13.000Z,24
2019-05-14T14:35:13.000Z,24
2019-05-14T14:36:13.000Z,24
2019-05-14T14:37:13.000Z,24
2019-05-14T14:38:13.000Z,24
2019-05-14T14:39:13.000Z,24
2019-05-14T14:41:13.000Z,24
2019-05-14T14:42:13.000Z,24
2019-05-14T14:43:13.000Z,24
2019-05-14T14:44:13.000Z,24
2019-05-14T14:45:13.000Z,24
2019-05-14T14:46:13.000Z,24
2019-05-14T14:47:13.000Z,24
2019-05-14T14:48:13.000Z,24
2019-05-14T14:49:13.000Z,24
2019-05-14T14:50:13.000Z,24
2019-05-14T14:51:13.000Z,24
2019-05-14T14:52:13.000Z,24
2019-05-14T14:53:13.000Z,24
2019-05-14T14:54:13.000Z,23
2019-05-14T14:55:13.000Z,23
2019-05-14T14:56:13.000Z,23
2019-05-14T14:57:13.000Z,24
2019-05-14T14:58:13.000Z,24
2019-05-14T14:59:13.000Z,24
2019-05-14T15:01:13.000Z,23
2019-05-14T15:02:13.000Z,24
2019-05-14T15:03:13.000Z,24
2019-05-14T15:04:13.000Z,24
2019-05-14T15:05:13.000Z,24
2019-05-14T15:07:13.000Z,24
2019-05-14T15:08:13.000Z,24
2019-05-14T15:09:13.000Z,24
2019-05-14T15:10:13.000Z,24
2019-05-14T15:11:13.000Z,24
2019-05-14T15:12:13.000Z,24
2019-05-14T15:13:13.000Z,24
2019-05-14T15:14:13.000Z,24
2019-05-14T15:15:13.000Z,24
2019-05-14T15:16:13.000Z,24
2019-05-14T15:18:13.000Z,24
2019-05-14T15:19:13.000Z,24
2019-05-14T15:20:13.000Z,24
2019-05-14T15:22:13.000Z,24
2019-05-14T15:23:13.000Z,24
2019-05-14T15:24:13.000Z,24
2019-05-14T15:25:13.000Z,24
2019-05-14T15:27:13.000Z,24
2019-05-14T15:28:13.000Z,24
2019-05-14T15:29:13.000Z,24
2019-05-14T15:30:13.000Z,24
2019-05-14T15:31:13.000Z,24
2019-05-14T15:32:13.000Z,24
2019-05-14T15:33:13.000Z,24
2019-05-14T15:35:13.000Z,24
2019-05-14T15:37:13.000Z,24
2019-05-14T15:38:13.000Z,24
2019-05-14T15:39:13.000Z,24
2019-05-14T15:40:13.000Z,24
2019-05-14T15:41:13.000Z,24
2019-05-14T15:42:13.000Z,24
2019-05-14T15:44:13.000Z,24
2019-05-14T15:45:13.000Z,24
2019-05-14T15:46:13.000Z,24
2019-05-14T15:47:13.000Z,24
2019-05-14T15:48:13.000Z,24
2019-05-14T15:49:13.000Z,24
2019-05-14T15:50:13.000Z,24
2019-05-14T15:51:13.000Z,24
2019-05-14T15:52:13.000Z,24